Time;durP1;ratioP1;P1;durP2;ratioP2;P2;SDS_P1;SDS_P2;PMS_P1;PMS_P2;Temp;Humidity;BMP_temperature;BMP_pressure;BME280_temperature;BME280_humidity;BME280_pressure;Samples;Min_cycle;Max_cycle;Signal;HPM_P1;HPM_P2
2022/07/19 00:00:31;;;;;;;3.60;2.80;;;23.60;62.20;;;;;;4990794;28;20054;-74
2022/07/19 00:02:57;;;;;;;5.18;3.10;;;23.90;63.50;;;;;;4990598;28;20091;-74
2022/07/19 00:05:25;;;;;;;3.60;2.90;;;23.40;59.50;;;;;;4990026;28;20056;-74
2022/07/19 00:07:53;;;;;;;3.65;3.05;;;22.00;62.20;;;;;;4991582;28;20052;-74
2022/07/19 00:10:20;;;;;;;3.53;2.78;;;22.90;62.20;;;;;;4990523;28;20062;-74
2022/07/19 00:12:47;;;;;;;4.75;3.00;;;23.40;59.50;;;;;;4991621;28;20053;-74
2022/07/19 00:15:15;;;;;;;4.15;2.78;;;23.40;59.50;;;;;;4990506;28;20081;-74
2022/07/19 00:17:43;;;;;;;4.35;2.85;;;23.40;59.50;;;;;;4991606;28;20042;-74
2022/07/19 00:20:11;;;;;;;3.80;3.08;;;23.60;62.60;;;;;;4990248;28;20508;-74
2022/07/19 00:22:38;;;;;;;3.63;3.00;;;23.30;59.50;;;;;;4990178;28;20050;-75
2022/07/19 00:25:06;;;;;;;4.45;3.22;;;23.30;59.50;;;;;;4990311;28;20047;-74
2022/07/19 00:27:33;;;;;;;4.05;2.90;;;23.30;59.60;;;;;;4990571;28;20137;-74
2022/07/19 00:30:00;;;;;;;4.18;2.92;;;23.30;59.50;;;;;;4990193;28;20054;-74
2022/07/19 00:32:27;;;;;;;6.88;3.05;;;22.50;62.30;;;;;;4990015;28;20054;-74
2022/07/19 00:34:53;;;;;;;5.00;3.00;;;23.30;60.10;;;;;;5005574;28;20427;-74
2022/07/19 00:37:20;;;;;;;3.47;2.75;;;23.30;59.60;;;;;;4990051;28;20133;-74
2022/07/19 00:39:47;;;;;;;3.95;2.78;;;23.30;59.60;;;;;;4990368;28;20054;-74
2022/07/19 00:42:15;;;;;;;3.55;2.70;;;23.10;62.60;;;;;;4990277;28;20482;-74
2022/07/19 00:44:45;;;;;;;3.65;2.75;;;23.40;62.50;;;;;;4991483;28;20053;-74
2022/07/19 00:47:12;;;;;;;4.25;2.80;;;23.10;62.80;;;;;;4990241;28;20070;-74
2022/07/19 00:49:39;;;;;;;3.67;2.83;;;23.30;59.60;;;;;;4990123;28;20086;-75
2022/07/19 00:52:06;;;;;;;4.00;2.90;;;23.20;59.50;;;;;;4990086;28;20495;-74
2022/07/19 00:54:34;;;;;;;3.63;2.72;;;23.20;59.50;;;;;;4989703;28;20081;-74
2022/07/19 00:57:01;;;;;;;4.25;3.03;;;23.20;59.60;;;;;;4990430;28;20086;-74
2022/07/19 00:59:29;;;;;;;4.10;3.00;;;23.20;59.60;;;;;;4990085;28;20415;-74
2022/07/19 01:01:56;;;;;;;3.83;3.13;;;23.20;59.60;;;;;;4990130;28;20050;-75
2022/07/19 01:04:22;;;;;;;4.18;3.15;;;23.20;59.60;;;;;;4989281;28;20057;-74
2022/07/19 01:06:49;;;;;;;3.60;2.88;;;23.20;59.60;;;;;;4990149;28;20081;-74
2022/07/19 01:09:16;;;;;;;4.43;3.00;;;23.10;59.60;;;;;;4990267;28;20054;-74
2022/07/19 01:11:43;;;;;;;3.78;3.00;;;23.90;62.30;;;;;;4990122;28;20141;-74
2022/07/19 01:14:10;;;;;;;4.18;3.05;;;25.20;60.70;;;;;;4989653;28;20128;-74
2022/07/19 01:16:41;;;;;;;4.70;3.20;;;23.10;59.60;;;;;;4990012;28;20105;-74
2022/07/19 01:19:08;;;;;;;3.90;3.28;;;23.10;63.00;;;;;;4989570;28;20068;-74
2022/07/19 01:21:36;;;;;;;3.75;3.00;;;23.10;59.60;;;;;;4993562;28;20146;-74
2022/07/19 01:24:02;;;;;;;3.83;3.08;;;23.10;59.60;;;;;;4994261;28;20105;-74
2022/07/19 01:26:29;;;;;;;3.90;2.90;;;23.10;59.60;;;;;;4993118;28;20058;-74
2022/07/19 01:28:56;;;;;;;3.85;3.00;;;23.00;59.60;;;;;;4993300;28;20065;-74
2022/07/19 01:31:23;;;;;;;4.47;2.90;;;23.10;59.60;;;;;;4993139;28;20085;-74
2022/07/19 01:33:50;;;;;;;3.78;2.83;;;23.10;62.60;;;;;;4992817;28;20137;-74
2022/07/19 01:36:16;;;;;;;3.25;2.90;;;23.10;59.70;;;;;;4993247;28;20555;-75
2022/07/19 01:38:44;;;;;;;3.95;2.80;;;23.10;59.70;;;;;;4992941;28;20109;-74
2022/07/19 01:41:11;;;;;;;3.38;3.03;;;23.10;59.70;;;;;;4992962;28;20054;-74
2022/07/19 01:43:39;;;;;;;3.53;2.92;;;22.90;62.70;;;;;;4992944;28;20054;-74
2022/07/19 01:46:06;;;;;;;3.80;2.97;;;23.00;59.60;;;;;;4993017;28;20062;-74
2022/07/19 01:48:33;;;;;;;3.80;3.20;;;23.00;63.20;;;;;;4992890;28;20384;-74
2022/07/19 01:50:59;;;;;;;3.80;3.10;;;22.90;62.30;;;;;;4993039;28;20085;-74
2022/07/19 01:53:26;;;;;;;4.60;3.10;;;23.00;59.60;;;;;;4992816;28;20058;-74
2022/07/19 01:55:54;;;;;;;2.70;2.42;;;23.20;59.80;;;;;;4992900;28;20050;-74
2022/07/19 01:58:21;;;;;;;3.58;2.80;;;23.00;59.70;;;;;;4992901;28;20054;-74
2022/07/19 02:00:48;;;;;;;4.35;3.15;;;22.60;61.30;;;;;;4992722;28;20146;-74
2022/07/19 02:03:16;;;;;;;3.33;2.55;;;23.00;59.70;;;;;;4992381;28;20407;-74
2022/07/19 02:05:43;;;;;;;4.05;3.00;;;22.90;59.70;;;;;;4993773;28;20133;-74
2022/07/19 02:08:09;;;;;;;3.53;2.80;;;22.90;59.60;;;;;;4992573;28;20060;-74
2022/07/19 02:10:36;;;;;;;3.50;2.83;;;22.90;59.70;;;;;;4992470;28;20133;-74
2022/07/19 02:13:04;;;;;;;3.42;2.67;;;22.90;59.70;;;;;;4992581;28;20165;-74
2022/07/19 02:15:31;;;;;;;4.72;2.92;;;22.90;59.70;;;;;;4992878;28;20153;-74
2022/07/19 02:17:58;;;;;;;3.58;3.10;;;22.90;59.70;;;;;;4992217;28;20418;-74
2022/07/19 02:20:25;;;;;;;4.15;3.30;;;22.90;59.70;;;;;;4992429;28;20062;-74
2022/07/19 02:22:51;;;;;;;3.50;2.78;;;22.90;59.70;;;;;;4991934;28;20129;-74
2022/07/19 02:25:18;;;;;;;3.60;2.90;;;22.80;63.10;;;;;;4992286;28;20134;-74
2022/07/19 02:27:45;;;;;;;3.85;2.85;;;22.70;62.60;;;;;;4992314;28;20086;-74
2022/07/19 02:30:13;;;;;;;3.80;3.15;;;22.80;59.70;;;;;;4992281;28;20130;-74
2022/07/19 02:32:40;;;;;;;3.90;3.10;;;22.80;59.70;;;;;;4991792;28;20054;-74
2022/07/19 02:35:11;;;;;;;3.72;2.80;;;22.80;59.70;;;;;;4991724;28;20105;-74
2022/07/19 02:37:38;;;;;;;3.10;2.80;;;22.80;59.70;;;;;;4992297;28;20076;-74
2022/07/19 02:40:06;;;;;;;4.18;2.88;;;22.80;59.80;;;;;;4993118;28;20060;-74
2022/07/19 02:42:33;;;;;;;4.18;2.92;;;22.80;59.80;;;;;;4991901;28;20062;-74
2022/07/19 02:44:59;;;;;;;3.95;2.92;;;23.60;64.00;;;;;;4991904;28;20082;-74
2022/07/19 02:47:28;;;;;;;5.15;3.22;;;22.80;62.90;;;;;;4992277;28;20510;-75
2022/07/19 02:49:55;;;;;;;3.88;3.40;;;22.80;59.80;;;;;;4991915;28;20050;-74
2022/07/19 02:52:21;;;;;;;4.25;2.97;;;22.80;59.80;;;;;;4992034;28;20056;-75
2022/07/19 02:54:48;;;;;;;3.95;2.95;;;22.70;59.70;;;;;;4991145;28;20437;-75
2022/07/19 02:57:15;;;;;;;4.35;2.83;;;22.70;59.70;;;;;;4991260;28;20061;-75
2022/07/19 02:59:42;;;;;;;3.85;2.88;;;22.60;62.30;;;;;;4991319;28;20049;-75
2022/07/19 03:02:08;;;;;;;3.40;2.55;;;22.70;59.70;;;;;;5007148;28;20054;-75
2022/07/19 03:04:36;;;;;;;3.92;2.85;;;22.70;59.70;;;;;;4990347;28;20487;-75
2022/07/19 03:07:03;;;;;;;3.80;2.78;;;22.70;59.70;;;;;;4990888;28;20097;-74
2022/07/19 03:09:30;;;;;;;4.10;3.17;;;22.70;59.70;;;;;;4991479;28;20053;-74
2022/07/19 03:11:56;;;;;;;4.45;2.92;;;22.60;63.00;;;;;;4991172;28;20149;-75
2022/07/19 03:14:23;;;;;;;3.28;2.58;;;22.70;59.70;;;;;;4991078;28;20420;-75
2022/07/19 03:16:50;;;;;;;3.75;2.78;;;22.70;59.70;;;;;;4991236;28;20051;-75
2022/07/19 03:19:16;;;;;;;4.45;2.75;;;22.70;62.70;;;;;;5007256;28;20685;-74
2022/07/19 03:21:44;;;;;;;4.28;2.42;;;22.60;59.70;;;;;;4990886;28;20054;-74
2022/07/19 03:24:11;;;;;;;4.00;2.63;;;22.60;59.70;;;;;;4990586;28;20061;-74
2022/07/19 03:26:38;;;;;;;3.00;2.70;;;22.60;59.70;;;;;;4990878;28;20042;-74
2022/07/19 03:29:05;;;;;;;4.63;2.72;;;23.00;62.90;;;;;;4990848;28;20082;-74
2022/07/19 03:31:32;;;;;;;3.60;2.75;;;22.60;59.70;;;;;;4990638;28;20133;-74
2022/07/19 03:33:58;;;;;;;3.30;2.65;;;22.60;59.70;;;;;;5006272;28;20050;-74
2022/07/19 03:36:25;;;;;;;3.08;2.53;;;22.80;59.80;;;;;;4990201;28;20133;-74
2022/07/19 03:38:53;;;;;;;4.20;3.08;;;22.60;59.70;;;;;;4990094;28;20175;-74
2022/07/19 03:41:20;;;;;;;3.20;2.72;;;22.60;59.70;;;;;;5007129;28;20149;-75
2022/07/19 03:43:47;;;;;;;4.45;3.20;;;22.60;59.70;;;;;;4989536;28;20051;-74
2022/07/19 03:46:13;;;;;;;4.93;2.83;;;22.60;59.70;;;;;;4990372;28;20062;-74
2022/07/19 03:48:40;;;;;;;3.22;2.70;;;22.60;59.70;;;;;;4990566;28;20152;-75
2022/07/19 03:51:07;;;;;;;4.50;2.80;;;22.50;59.60;;;;;;4990525;28;20057;-76
2022/07/19 03:53:34;;;;;;;3.30;2.60;;;22.50;59.70;;;;;;4987586;28;20064;-74
2022/07/19 03:56:02;;;;;;;4.13;2.65;;;22.50;59.60;;;;;;4990569;28;20672;-75
2022/07/19 03:58:29;;;;;;;4.03;3.05;;;22.50;59.70;;;;;;4990327;28;20050;-76
2022/07/19 04:00:56;;;;;;;3.47;2.85;;;22.40;61.00;;;;;;4990443;28;20056;-75
2022/07/19 04:03:23;;;;;;;4.20;2.80;;;22.50;59.70;;;;;;4990172;28;20058;-75
2022/07/19 04:05:50;;;;;;;3.55;2.72;;;22.40;63.20;;;;;;4990535;28;20133;-75
2022/07/19 04:08:16;;;;;;;3.10;2.60;;;22.80;59.80;;;;;;4990769;28;20555;-75
2022/07/19 04:10:43;;;;;;;3.35;2.50;;;23.10;61.10;;;;;;4990327;28;20060;-74
2022/07/19 04:13:11;;;;;;;4.30;2.55;;;22.40;63.10;;;;;;4990502;28;20145;-74
2022/07/19 04:15:38;;;;;;;3.10;2.60;;;22.50;63.00;;;;;;4990613;28;20065;-74
2022/07/19 04:18:05;;;;;;;3.78;2.90;;;22.50;59.70;;;;;;4990336;28;20482;-74
2022/07/19 04:20:31;;;;;;;2.83;2.50;;;23.00;62.60;;;;;;4990416;28;20060;-74
2022/07/19 04:22:58;;;;;;;3.45;2.50;;;22.50;59.70;;;;;;4990462;28;20674;-75
2022/07/19 04:25:25;;;;;;;3.42;2.45;;;22.50;60.20;;;;;;4990435;28;20141;-74
2022/07/19 04:27:52;;;;;;;4.15;2.60;;;22.50;59.60;;;;;;4991471;28;20053;-75
2022/07/19 04:30:20;;;;;;;3.00;2.67;;;22.50;59.60;;;;;;4991369;28;20054;-74
2022/07/19 04:32:47;;;;;;;4.32;2.90;;;21.90;62.20;;;;;;4990072;28;20062;-74
2022/07/19 04:35:15;;;;;;;4.32;2.90;;;22.50;59.60;;;;;;4990051;28;20411;-74
2022/07/19 04:37:42;;;;;;;3.60;2.88;;;22.50;59.60;;;;;;4990274;28;20134;-74
2022/07/19 04:40:09;;;;;;;5.13;2.75;;;22.50;59.60;;;;;;4990371;28;20050;-74
2022/07/19 04:42:36;;;;;;;3.38;2.63;;;22.50;63.40;;;;;;4990387;28;20146;-74
2022/07/19 04:45:03;;;;;;;3.50;2.90;;;22.60;62.50;;;;;;4989882;28;20137;-74
2022/07/19 04:47:31;;;;;;;9.90;2.80;;;22.40;59.50;;;;;;4989952;28;20052;-74
2022/07/19 04:49:58;;;;;;;3.95;2.80;;;22.40;59.50;;;;;;4990207;28;20153;-75
2022/07/19 04:52:24;;;;;;;2.95;2.60;;;22.60;59.70;;;;;;4990337;28;20054;-74
2022/07/19 04:54:51;;;;;;;3.53;2.78;;;22.40;59.50;;;;;;4992127;28;20126;-74
2022/07/19 04:57:18;;;;;;;2.80;2.35;;;22.40;59.50;;;;;;4994157;28;20070;-74
2022/07/19 04:59:56;;;;;;;3.20;2.50;;;22.40;59.50;;;;;;4994397;28;20064;-75
2022/07/19 05:02:23;;;;;;;3.63;2.75;;;22.30;63.30;;;;;;4994077;28;20056;-76
2022/07/19 05:04:51;;;;;;;4.43;2.80;;;22.40;59.60;;;;;;4993518;28;20064;-73
2022/07/19 05:07:18;;;;;;;3.58;2.90;;;22.40;59.60;;;;;;4994691;28;20088;-74
2022/07/19 05:09:45;;;;;;;3.10;2.63;;;22.50;59.50;;;;;;4993811;28;20068;-73
2022/07/19 05:12:11;;;;;;;3.75;2.60;;;22.40;59.50;;;;;;4993432;28;20062;-74
2022/07/19 05:14:38;;;;;;;3.97;2.67;;;22.40;59.50;;;;;;4993650;28;20058;-73
2022/07/19 05:17:05;;;;;;;3.47;2.55;;;22.40;59.50;;;;;;4993300;28;20046;-73
2022/07/19 05:19:31;;;;;;;3.03;2.70;;;22.20;61.90;;;;;;4993459;28;20596;-73
2022/07/19 05:21:59;;;;;;;3.72;2.75;;;22.40;59.50;;;;;;4993557;28;20145;-73
2022/07/19 05:24:26;;;;;;;3.53;2.90;;;22.40;59.40;;;;;;4993261;28;20066;-73
2022/07/19 05:26:53;;;;;;;3.95;2.67;;;22.40;59.40;;;;;;4992953;28;20054;-73
2022/07/19 05:29:20;;;;;;;6.20;3.33;;;22.40;60.00;;;;;;4993578;28;20524;-73
2022/07/19 05:31:47;;;;;;;3.13;2.50;;;22.40;59.40;;;;;;4993161;28;20066;-74
2022/07/19 05:34:14;;;;;;;3.10;2.50;;;22.40;59.40;;;;;;4993204;28;20161;-74
2022/07/19 05:36:41;;;;;;;3.70;2.90;;;22.30;59.30;;;;;;4993136;28;20143;-74
2022/07/19 05:39:09;;;;;;;3.47;2.75;;;22.80;62.60;;;;;;4993037;28;20054;-74
2022/07/19 05:41:35;;;;;;;3.42;2.97;;;22.40;59.40;;;;;;4992988;28;20054;-73
2022/07/19 05:44:02;;;;;;;3.28;2.88;;;22.40;59.30;;;;;;4993074;28;20137;-73
2022/07/19 05:46:29;;;;;;;3.53;2.83;;;22.50;63.00;;;;;;4992988;28;20112;-73
2022/07/19 05:48:55;;;;;;;3.17;2.55;;;22.40;59.30;;;;;;4992953;28;20149;-73
2022/07/19 05:51:22;;;;;;;3.25;2.65;;;22.40;59.30;;;;;;4992984;28;20054;-73
2022/07/19 05:53:49;;;;;;;4.28;2.88;;;22.50;59.30;;;;;;4992279;28;20754;-73
2022/07/19 05:56:17;;;;;;;4.30;2.70;;;22.50;59.20;;;;;;4992796;28;20050;-73
2022/07/19 05:58:43;;;;;;;3.65;2.95;;;22.60;59.20;;;;;;4992647;28;20141;-73
2022/07/19 06:01:19;;;;;;;4.85;2.92;;;22.60;59.10;;;;;;4992834;28;20069;-73
2022/07/19 06:03:47;;;;;;;4.13;3.03;;;22.70;59.00;;;;;;4992797;28;20112;-73
2022/07/19 06:06:15;;;;;;;4.20;3.10;;;22.80;59.00;;;;;;4991949;28;20050;-73
2022/07/19 06:08:41;;;;;;;2.92;2.55;;;22.90;58.90;;;;;;4993530;28;20046;-73
2022/07/19 06:11:08;;;;;;;3.22;2.83;;;23.00;58.80;;;;;;4992681;28;20062;-74
2022/07/19 06:13:38;;;;;;;3.80;2.70;;;23.10;58.70;;;;;;4992352;28;20182;-75
2022/07/19 06:16:05;;;;;;;3.42;2.45;;;23.20;58.60;;;;;;4992846;28;20057;-75
2022/07/19 06:18:34;;;;;;;3.35;2.70;;;23.30;58.50;;;;;;4992449;28;20133;-74
2022/07/19 06:21:01;;;;;;;3.40;2.72;;;23.30;58.30;;;;;;4992665;28;20468;-74
2022/07/19 06:23:27;;;;;;;4.85;2.70;;;23.80;62.10;;;;;;4992408;28;20047;-73
2022/07/19 06:25:54;;;;;;;4.05;2.58;;;23.60;58.10;;;;;;4992227;28;20062;-73
2022/07/19 06:28:21;;;;;;;4.30;2.65;;;23.60;57.90;;;;;;4992028;28;20065;-73
2022/07/19 06:30:49;;;;;;;2.55;2.35;;;23.90;59.00;;;;;;4992111;28;20070;-73
2022/07/19 06:33:15;;;;;;;3.70;2.42;;;24.00;57.80;;;;;;4992217;28;20058;-73
2022/07/19 06:35:42;;;;;;;4.03;2.50;;;23.90;57.60;;;;;;4992246;28;20145;-74
2022/07/19 06:38:09;;;;;;;3.80;2.90;;;24.00;57.50;;;;;;4991946;28;20129;-75
2022/07/19 06:40:36;;;;;;;4.97;2.90;;;24.10;57.50;;;;;;4992115;28;20484;-75
2022/07/19 06:43:02;;;;;;;4.72;2.80;;;24.20;57.40;;;;;;4993024;28;20081;-74
2022/07/19 06:45:29;;;;;;;9.73;3.42;;;24.30;57.30;;;;;;4992301;28;20050;-74
2022/07/19 06:47:57;;;;;;;7.65;2.90;;;24.30;57.20;;;;;;4991702;28;20066;-73
2022/07/19 06:50:24;;;;;;;6.38;3.05;;;24.40;57.10;;;;;;4991569;28;20054;-73
2022/07/19 06:52:51;;;;;;;7.25;2.78;;;24.40;57.00;;;;;;4991041;28;20129;-73
2022/07/19 06:55:17;;;;;;;4.72;3.00;;;24.50;56.90;;;;;;4991758;28;20105;-73
2022/07/19 06:57:44;;;;;;;6.35;2.88;;;24.70;60.60;;;;;;4992017;28;20484;-73
2022/07/19 07:00:13;;;;;;;5.03;2.53;;;24.60;56.80;;;;;;4991597;28;20050;-73
2022/07/19 07:02:40;;;;;;;13.52;2.90;;;24.70;56.70;;;;;;4991793;28;20054;-73
2022/07/19 07:05:09;;;;;;;4.90;2.90;;;24.80;56.70;;;;;;4991673;28;20058;-73
2022/07/19 07:07:36;;;;;;;3.78;2.67;;;24.90;56.60;;;;;;4990891;28;20060;-73
2022/07/19 07:10:03;;;;;;;5.70;2.58;;;24.90;56.50;;;;;;4991732;28;20051;-76
2022/07/19 07:12:29;;;;;;;6.00;2.50;;;24.90;56.40;;;;;;4991847;28;20136;-72
2022/07/19 07:14:56;;;;;;;6.55;2.67;;;25.00;56.30;;;;;;4991648;28;20061;-73
2022/07/19 07:17:23;;;;;;;4.53;2.83;;;24.90;60.10;;;;;;4989468;28;20100;-73
2022/07/19 07:19:50;;;;;;;6.32;2.75;;;25.10;56.20;;;;;;4989869;28;20554;-73
2022/07/19 07:22:18;;;;;;;6.22;2.80;;;25.20;56.30;;;;;;4988393;28;20061;-73
2022/07/19 07:24:48;;;;;;;3.88;2.70;;;25.20;56.30;;;;;;4991339;28;20150;-72
2022/07/19 07:27:15;;;;;;;4.13;2.60;;;25.20;56.10;;;;;;4990297;28;20046;-72
2022/07/19 07:29:42;;;;;;;4.90;2.75;;;25.30;56.10;;;;;;4990830;28;20133;-72
2022/07/19 07:32:08;;;;;;;;;;;25.30;56.10;;;;;;4991177;28;20086;-72
2022/07/19 07:34:35;;;;;;;3.17;2.53;;;25.60;59.90;;;;;;4990793;28;19932;-73
2022/07/19 07:37:01;;;;;;;5.05;2.53;;;25.40;56.10;;;;;;4990922;28;20056;-74
2022/07/19 07:39:30;;;;;;;6.20;2.58;;;24.60;59.70;;;;;;4990926;28;20133;-74
2022/07/19 07:41:56;;;;;;;4.13;2.67;;;25.40;56.00;;;;;;4990914;28;20058;-74
2022/07/19 07:44:23;;;;;;;5.68;3.17;;;25.50;56.00;;;;;;4990631;28;20062;-73
2022/07/19 07:46:50;;;;;;;4.63;2.83;;;25.40;59.40;;;;;;4991854;28;20054;-73
2022/07/19 07:49:17;;;;;;;9.20;2.78;;;24.90;59.20;;;;;;4990943;28;20056;-73
2022/07/19 07:51:43;;;;;;;3.78;2.78;;;25.00;69.60;;;;;;4990557;28;20503;-72
2022/07/19 07:54:10;;;;;;;5.25;2.85;;;25.60;56.00;;;;;;4990265;28;20129;-73
2022/07/19 07:56:38;;;;;;;6.72;3.00;;;25.60;55.90;;;;;;4990312;28;20579;-72
2022/07/19 07:59:05;;;;;;;5.82;2.85;;;25.70;56.00;;;;;;4990899;28;20137;-72
2022/07/19 08:01:31;;;;;;;7.63;3.10;;;25.70;55.80;;;;;;4989758;28;20054;-73
2022/07/19 08:03:58;;;;;;;4.35;2.70;;;25.80;55.90;;;;;;4982156;28;20575;-73
2022/07/19 08:06:25;;;;;;;5.95;2.72;;;25.80;55.80;;;;;;4979687;28;20059;-73
2022/07/19 08:08:52;;;;;;;5.60;3.03;;;25.90;56.00;;;;;;4986119;28;20054;-73
2022/07/19 08:11:19;;;;;;;7.18;2.90;;;25.90;55.80;;;;;;4981916;28;20133;-73
2022/07/19 08:13:47;;;;;;;6.95;2.60;;;25.90;55.70;;;;;;4984543;28;20058;-73
2022/07/19 08:16:13;;;;;;;3.80;2.85;;;26.00;55.80;;;;;;4989297;28;20138;-73
2022/07/19 08:18:40;;;;;;;3.58;2.55;;;26.00;55.70;;;;;;4990609;28;20484;-73
2022/07/19 08:21:08;;;;;;;5.25;2.78;;;26.10;55.80;;;;;;4990496;28;20142;-73
2022/07/19 08:23:34;;;;;;;3.67;2.65;;;26.10;55.80;;;;;;4990593;28;20129;-73
2022/07/19 08:26:01;;;;;;;3.67;2.90;;;26.20;55.80;;;;;;4990719;28;20491;-72
2022/07/19 08:28:28;;;;;;;6.13;2.55;;;26.20;55.70;;;;;;4990495;28;20053;-73
2022/07/19 08:30:56;;;;;;;4.20;2.40;;;26.40;56.70;;;;;;4994567;28;20133;-73
2022/07/19 08:33:22;;;;;;;5.57;2.60;;;26.20;55.80;;;;;;4994556;28;20054;-72
2022/07/19 08:35:49;;;;;;;5.25;2.50;;;26.20;55.90;;;;;;4994427;28;20392;-72
2022/07/19 08:38:16;;;;;;;6.50;2.58;;;26.20;55.90;;;;;;4990790;28;20077;-72
2022/07/19 08:40:43;;;;;;;4.50;2.70;;;26.20;56.10;;;;;;4984118;28;20411;-72
2022/07/19 08:43:10;;;;;;;3.85;2.67;;;26.20;58.60;;;;;;4983670;28;20062;-72
2022/07/19 08:45:37;;;;;;;5.95;2.75;;;26.30;56.00;;;;;;5001001;28;20054;-72
2022/07/19 08:48:07;;;;;;;3.95;2.65;;;26.30;55.90;;;;;;4985611;28;20519;-72
2022/07/19 08:50:34;;;;;;;3.58;2.33;;;26.30;55.80;;;;;;4983342;28;20042;-72
2022/07/19 08:53:01;;;;;;;6.50;2.60;;;26.30;55.80;;;;;;4985686;28;20137;-72
2022/07/19 08:55:28;;;;;;;3.25;2.45;;;26.40;59.00;;;;;;4984851;28;20066;-72
2022/07/19 08:58:01;;;;;;;4.97;2.22;;;26.30;55.80;;;;;;4979740;28;20058;-72
2022/07/19 09:00:28;;;;;;;3.00;2.22;;;26.30;55.70;;;;;;4985222;28;20734;-73
2022/07/19 09:02:55;;;;;;;4.30;2.40;;;26.30;55.80;;;;;;4993586;28;20141;-72
2022/07/19 09:05:24;;;;;;;3.08;2.33;;;26.30;55.80;;;;;;4993751;28;20054;-72
2022/07/19 09:08:05;;;;;;;3.40;2.55;;;26.30;59.80;;;;;;4994078;28;20126;-72
2022/07/19 09:10:32;;;;;;;5.38;2.40;;;26.60;59.60;;;;;;4993493;28;20391;-72
2022/07/19 09:13:06;;;;;;;4.15;2.40;;;26.30;56.00;;;;;;4993555;28;20054;-72
2022/07/19 09:15:42;;;;;;;5.13;2.20;;;26.30;56.00;;;;;;4992974;28;20058;-72
2022/07/19 09:18:09;;;;;;;2.67;2.33;;;26.30;55.90;;;;;;4993894;28;20057;-74
2022/07/19 09:20:37;;;;;;;3.15;2.28;;;26.30;55.90;;;;;;4993764;28;20421;-74
2022/07/19 09:23:04;;;;;;;3.45;2.30;;;26.30;55.90;;;;;;4993289;28;20054;-74
2022/07/19 09:25:36;;;;;;;2.78;1.98;;;26.30;55.90;;;;;;4993607;28;20061;-74
2022/07/19 09:28:03;;;;;;;4.22;2.20;;;26.40;58.90;;;;;;4993553;28;20046;-74
2022/07/19 09:30:36;;;;;;;3.30;2.33;;;26.30;56.00;;;;;;4993065;28;20145;-73
2022/07/19 09:33:14;;;;;;;4.13;2.30;;;26.30;56.10;;;;;;5009404;28;20054;-73
2022/07/19 09:35:43;;;;;;;2.90;2.20;;;26.30;56.20;;;;;;4993431;28;20054;-73
2022/07/19 09:38:20;;;;;;;3.58;2.53;;;26.30;56.90;;;;;;4993420;28;20046;-73
2022/07/19 09:40:47;;;;;;;2.58;2.05;;;26.30;56.50;;;;;;4992306;28;20073;-73
2022/07/19 09:43:14;;;;;;;3.28;2.30;;;26.30;56.60;;;;;;4992993;28;20057;-73
2022/07/19 09:45:40;;;;;;;4.35;2.40;;;26.30;56.80;;;;;;4992933;28;20499;-72
2022/07/19 09:48:07;;;;;;;4.45;2.20;;;26.30;57.00;;;;;;4992871;28;20054;-74
2022/07/19 09:50:35;;;;;;;10.00;2.30;;;26.30;57.00;;;;;;4992405;28;20058;-72
2022/07/19 09:53:05;;;;;;;3.40;2.40;;;26.30;57.10;;;;;;4992803;28;20699;-73
2022/07/19 09:55:31;;;;;;;7.05;2.40;;;26.30;57.10;;;;;;4991780;28;20060;-73
2022/07/19 09:57:59;;;;;;;3.38;2.25;;;26.30;57.00;;;;;;4983823;28;20457;-73
2022/07/19 10:00:26;;;;;;;6.15;2.30;;;27.20;60.40;;;;;;4983759;28;20125;-73
2022/07/19 10:02:55;;;;;;;3.00;2.25;;;26.30;56.90;;;;;;4987603;28;20050;-73
2022/07/19 10:05:22;;;;;;;3.53;1.90;;;26.30;56.90;;;;;;4984842;28;20054;-73
2022/07/19 10:07:49;;;;;;;3.28;2.00;;;26.30;56.90;;;;;;4983591;28;20056;-73
2022/07/19 10:10:18;;;;;;;3.28;2.45;;;26.30;56.90;;;;;;4990639;28;20062;-72
2022/07/19 10:12:46;;;;;;;3.00;2.30;;;26.30;56.90;;;;;;4992790;28;20137;-73
2022/07/19 10:15:14;;;;;;;2.78;1.95;;;24.90;58.60;;;;;;4992274;28;20065;-73
2022/07/19 10:17:44;;;;;;;3.72;2.20;;;26.20;56.90;;;;;;4992217;28;20065;-74
2022/07/19 10:20:10;;;;;;;4.38;2.20;;;26.20;57.00;;;;;;4992206;28;20492;-73
2022/07/19 10:22:39;;;;;;;6.13;2.28;;;26.20;57.00;;;;;;4992518;28;20054;-73
2022/07/19 10:25:11;;;;;;;5.20;2.20;;;26.20;57.10;;;;;;4992297;28;20054;-74
2022/07/19 10:27:41;;;;;;;5.30;2.28;;;26.20;57.30;;;;;;4992153;28;20524;-73
2022/07/19 10:30:23;;;;;;;4.72;2.20;;;26.20;57.50;;;;;;4990427;28;20060;-73
2022/07/19 10:32:50;;;;;;;7.25;2.40;;;26.20;57.60;;;;;;4991809;28;20096;-73
2022/07/19 10:35:18;;;;;;;5.32;2.15;;;26.20;57.60;;;;;;4992126;28;20054;-73
2022/07/19 10:37:45;;;;;;;4.22;2.40;;;26.20;57.70;;;;;;4992436;28;20066;-73
2022/07/19 10:40:12;;;;;;;5.38;2.03;;;26.20;57.80;;;;;;4991880;28;20046;-73
2022/07/19 10:43:04;;;;;;;4.20;2.20;;;26.30;57.80;;;;;;4991890;28;20086;-72
2022/07/19 10:45:31;;;;;;;2.97;2.10;;;26.30;57.80;;;;;;4992061;28;20493;-73
2022/07/19 10:47:59;;;;;;;3.15;2.03;;;26.30;57.80;;;;;;4991722;28;20567;-73
2022/07/19 10:50:42;;;;;;;4.07;1.75;;;26.50;58.00;;;;;;4990653;28;20046;-73
2022/07/19 10:53:08;;;;;;;3.25;2.10;;;26.30;57.90;;;;;;4990904;28;20488;-73
2022/07/19 10:55:36;;;;;;;4.90;2.15;;;26.30;58.10;;;;;;4991769;28;20058;-73
2022/07/19 10:58:11;;;;;;;3.40;1.90;;;26.40;58.10;;;;;;4991554;28;20054;-72
2022/07/19 11:00:43;;;;;;;3.00;2.20;;;26.50;60.70;;;;;;4979426;28;20050;-73
2022/07/19 11:03:32;;;;;;;4.00;2.00;;;26.20;58.00;;;;;;4991083;28;20538;-73
2022/07/19 11:06:00;;;;;;;2.67;2.00;;;26.40;58.40;;;;;;4991705;28;20054;-73
2022/07/19 11:08:33;;;;;;;5.10;2.20;;;26.40;58.10;;;;;;4991557;28;20068;-73
2022/07/19 11:11:04;;;;;;;2.17;1.83;;;26.40;58.20;;;;;;4991067;28;20065;-74
2022/07/19 11:13:38;;;;;;;4.15;2.17;;;26.40;58.20;;;;;;4990738;28;20142;-73
2022/07/19 11:16:05;;;;;;;3.50;2.10;;;26.40;58.20;;;;;;4991660;28;20046;-73
2022/07/19 11:18:32;;;;;;;5.72;1.92;;;26.40;58.10;;;;;;4975339;28;20125;-73
2022/07/19 11:21:00;;;;;;;3.65;1.90;;;26.20;59.20;;;;;;4991616;28;20049;-73
2022/07/19 11:23:29;;;;;;;3.25;2.30;;;26.40;57.90;;;;;;4990601;28;20057;-73
2022/07/19 11:26:06;;;;;;;3.20;2.10;;;27.60;61.70;;;;;;4989514;28;20057;-73
2022/07/19 11:28:34;;;;;;;2.42;1.90;;;26.50;57.90;;;;;;4974942;28;20052;-73
2022/07/19 11:31:01;;;;;;;3.40;1.90;;;26.50;57.80;;;;;;4990351;28;20406;-74
2022/07/19 11:33:28;;;;;;;3.85;2.00;;;25.80;59.50;;;;;;4990485;28;20082;-73
2022/07/19 11:35:56;;;;;;;3.00;1.90;;;26.50;57.70;;;;;;4990870;28;20065;-73
2022/07/19 11:38:23;;;;;;;3.08;2.00;;;26.50;57.70;;;;;;4990872;28;20476;-73
2022/07/19 11:40:49;;;;;;;2.58;2.00;;;26.50;57.70;;;;;;4990428;28;20058;-73
2022/07/19 11:43:16;;;;;;;3.10;2.10;;;26.00;59.40;;;;;;4991868;28;20052;-73
2022/07/19 11:45:46;;;;;;;3.38;2.10;;;26.50;57.80;;;;;;4990704;28;20556;-73
2022/07/19 11:48:12;;;;;;;3.28;2.28;;;26.60;57.90;;;;;;4990446;28;20052;-73
2022/07/19 11:50:40;;;;;;;2.45;1.88;;;26.50;57.90;;;;;;4990125;28;20137;-73
2022/07/19 11:53:08;;;;;;;2.20;1.80;;;26.50;60.40;;;;;;4990285;28;20058;-73
2022/07/19 11:55:36;;;;;;;2.80;1.70;;;26.50;58.00;;;;;;4989948;28;20058;-73
2022/07/19 11:58:05;;;;;;;;;;;26.50;58.10;;;;;;4991121;28;20046;-73
2022/07/19 12:00:32;;;;;;;3.63;1.77;;;26.60;60.90;;;;;;4990532;28;19928;-73
2022/07/19 12:03:03;;;;;;;2.50;2.00;;;26.60;58.20;;;;;;4989475;28;20052;-72
2022/07/19 12:05:30;;;;;;;4.50;1.73;;;26.50;58.30;;;;;;4990729;28;20090;-72
2022/07/19 12:08:00;;;;;;;4.63;1.75;;;26.60;58.30;;;;;;4987571;28;20145;-73
2022/07/19 12:10:41;;;;;;;2.17;1.73;;;26.60;58.30;;;;;;4984856;28;20133;-73
2022/07/19 12:13:09;;;;;;;2.30;1.60;;;26.60;58.80;;;;;;4999133;28;20129;-73
2022/07/19 12:15:46;;;;;;;2.53;1.75;;;26.60;58.10;;;;;;4982428;28;20478;-73
2022/07/19 12:18:16;;;;;;;2.45;1.80;;;26.60;58.10;;;;;;4985866;28;20519;-73
2022/07/19 12:20:43;;;;;;;2.00;1.80;;;26.60;58.00;;;;;;4981412;28;20054;-73
2022/07/19 12:23:14;;;;;;;2.47;1.77;;;26.60;57.90;;;;;;4983413;28;20507;-73
2022/07/19 12:25:41;;;;;;;2.33;1.90;;;26.60;57.90;;;;;;4985396;28;20046;-73
2022/07/19 12:28:07;;;;;;;3.42;1.45;;;25.70;59.40;;;;;;4986944;28;20046;-73
2022/07/19 12:30:34;;;;;;;2.10;1.73;;;26.60;57.80;;;;;;4989498;28;20129;-73
2022/07/19 12:33:08;;;;;;;2.60;1.60;;;26.60;57.80;;;;;;4989447;28;20051;-73
2022/07/19 12:35:44;;;;;;;3.20;1.90;;;26.70;57.80;;;;;;4988154;28;20097;-73
2022/07/19 12:38:11;;;;;;;2.40;1.70;;;26.70;57.80;;;;;;4987304;28;20061;-73
2022/07/19 12:40:38;;;;;;;1.92;1.60;;;26.60;57.80;;;;;;4989849;28;20074;-73
2022/07/19 12:43:05;;;;;;;1.95;1.65;;;26.70;57.90;;;;;;4989518;28;20050;-73
2022/07/19 12:45:32;;;;;;;3.08;1.98;;;26.60;57.80;;;;;;4990261;28;20518;-73
2022/07/19 12:47:59;;;;;;;3.30;1.80;;;26.70;58.00;;;;;;4989861;28;20455;-73
2022/07/19 12:50:27;;;;;;;3.50;1.77;;;26.70;58.10;;;;;;4989844;28;20065;-73